sensor_id;sensor_type;location;lat;lon;timestamp;P1;durP1;ratioP1;P2;durP2;ratioP2
4023;SDS011;2026;51.002;13.668;2023-04-25T00:01:34;5.73;;;3.23;;
4023;SDS011;2026;51.002;13.668;2023-04-25T00:06:37;3.40;;;3.00;;
4023;SDS011;2026;51.002;13.668;2023-04-25T00:11:40;4.50;;;3.53;;
4023;SDS011;2026;51.002;13.668;2023-04-25T00:16:45;4.80;;;3.90;;
4023;SDS011;2026;51.002;13.668;2023-04-25T00:21:48;4.20;;;3.40;;
4023;SDS011;2026;51.002;13.668;2023-04-25T00:26:51;4.77;;;3.50;;
4023;SDS011;2026;51.002;13.668;2023-04-25T00:31:55;5.57;;;4.10;;
4023;SDS011;2026;51.002;13.668;2023-04-25T00:36:59;6.00;;;3.83;;
4023;SDS011;2026;51.002;13.668;2023-04-25T00:42:03;6.60;;;4.40;;
4023;SDS011;2026;51.002;13.668;2023-04-25T00:47:08;7.70;;;4.00;;
4023;SDS011;2026;51.002;13.668;2023-04-25T00:52:13;7.07;;;4.50;;
4023;SDS011;2026;51.002;13.668;2023-04-25T00:57:16;5.80;;;4.50;;
4023;SDS011;2026;51.002;13.668;2023-04-25T01:02:20;6.67;;;4.43;;
4023;SDS011;2026;51.002;13.668;2023-04-25T01:07:24;7.20;;;5.07;;
4023;SDS011;2026;51.002;13.668;2023-04-25T01:12:27;6.33;;;4.90;;
4023;SDS011;2026;51.002;13.668;2023-04-25T01:17:31;7.37;;;4.60;;
4023;SDS011;2026;51.002;13.668;2023-04-25T01:22:36;6.40;;;4.30;;
4023;SDS011;2026;51.002;13.668;2023-04-25T01:27:39;5.83;;;4.43;;
4023;SDS011;2026;51.002;13.668;2023-04-25T01:32:42;7.03;;;4.27;;
4023;SDS011;2026;51.002;13.668;2023-04-25T01:37:47;5.70;;;4.07;;
4023;SDS011;2026;51.002;13.668;2023-04-25T01:42:51;8.67;;;5.20;;
4023;SDS011;2026;51.002;13.668;2023-04-25T01:47:54;8.43;;;4.63;;
4023;SDS011;2026;51.002;13.668;2023-04-25T01:53:02;6.87;;;4.47;;
4023;SDS011;2026;51.002;13.668;2023-04-25T01:58:05;10.10;;;4.40;;
4023;SDS011;2026;51.002;13.668;2023-04-25T02:03:31;6.53;;;5.07;;
4023;SDS011;2026;51.002;13.668;2023-04-25T02:08:38;5.90;;;4.50;;
4023;SDS011;2026;51.002;13.668;2023-04-25T02:13:41;7.90;;;4.80;;
4023;SDS011;2026;51.002;13.668;2023-04-25T02:19:02;8.03;;;4.93;;
4023;SDS011;2026;51.002;13.668;2023-04-25T02:24:08;6.90;;;5.20;;
4023;SDS011;2026;51.002;13.668;2023-04-25T02:29:11;8.13;;;4.77;;
4023;SDS011;2026;51.002;13.668;2023-04-25T02:34:15;6.97;;;4.80;;
4023;SDS011;2026;51.002;13.668;2023-04-25T02:39:20;9.83;;;5.17;;
4023;SDS011;2026;51.002;13.668;2023-04-25T02:44:23;7.93;;;4.60;;
4023;SDS011;2026;51.002;13.668;2023-04-25T02:49:26;6.60;;;4.90;;
4023;SDS011;2026;51.002;13.668;2023-04-25T02:54:31;8.37;;;5.43;;
4023;SDS011;2026;51.002;13.668;2023-04-25T02:59:35;7.07;;;5.30;;
4023;SDS011;2026;51.002;13.668;2023-04-25T03:04:38;7.63;;;5.73;;
4023;SDS011;2026;51.002;13.668;2023-04-25T03:09:42;12.20;;;5.97;;
4023;SDS011;2026;51.002;13.668;2023-04-25T03:14:46;8.07;;;5.60;;
4023;SDS011;2026;51.002;13.668;2023-04-25T03:19:49;8.57;;;5.80;;
4023;SDS011;2026;51.002;13.668;2023-04-25T03:24:54;8.20;;;5.87;;
4023;SDS011;2026;51.002;13.668;2023-04-25T03:29:56;9.40;;;5.60;;
4023;SDS011;2026;51.002;13.668;2023-04-25T03:35:00;9.73;;;5.63;;
4023;SDS011;2026;51.002;13.668;2023-04-25T03:40:07;9.27;;;5.90;;
4023;SDS011;2026;51.002;13.668;2023-04-25T03:45:33;10.23;;;5.87;;
4023;SDS011;2026;51.002;13.668;2023-04-25T03:50:36;9.00;;;5.70;;
4023;SDS011;2026;51.002;13.668;2023-04-25T03:55:41;9.17;;;5.70;;
4023;SDS011;2026;51.002;13.668;2023-04-25T04:00:44;12.57;;;5.90;;
4023;SDS011;2026;51.002;13.668;2023-04-25T04:05:47;8.93;;;5.97;;
4023;SDS011;2026;51.002;13.668;2023-04-25T04:10:53;12.20;;;7.63;;
4023;SDS011;2026;51.002;13.668;2023-04-25T04:15:56;8.77;;;7.10;;
4023;SDS011;2026;51.002;13.668;2023-04-25T04:21:00;10.07;;;6.07;;
4023;SDS011;2026;51.002;13.668;2023-04-25T04:26:07;14.83;;;7.10;;
4023;SDS011;2026;51.002;13.668;2023-04-25T04:31:18;12.53;;;7.17;;
4023;SDS011;2026;51.002;13.668;2023-04-25T04:36:21;10.33;;;5.97;;
4023;SDS011;2026;51.002;13.668;2023-04-25T04:41:26;7.73;;;6.43;;
4023;SDS011;2026;51.002;13.668;2023-04-25T04:47:01;8.87;;;5.57;;
4023;SDS011;2026;51.002;13.668;2023-04-25T04:52:26;9.80;;;5.67;;
4023;SDS011;2026;51.002;13.668;2023-04-25T04:57:37;7.90;;;5.43;;
4023;SDS011;2026;51.002;13.668;2023-04-25T05:03:03;9.40;;;6.10;;
4023;SDS011;2026;51.002;13.668;2023-04-25T05:08:22;12.83;;;6.37;;
4023;SDS011;2026;51.002;13.668;2023-04-25T05:13:43;13.30;;;7.23;;
4023;SDS011;2026;51.002;13.668;2023-04-25T05:19:12;10.83;;;6.30;;
4023;SDS011;2026;51.002;13.668;2023-04-25T05:24:25;9.57;;;6.10;;
4023;SDS011;2026;51.002;13.668;2023-04-25T05:29:46;13.73;;;6.60;;
4023;SDS011;2026;51.002;13.668;2023-04-25T05:35:00;10.27;;;5.60;;
4023;SDS011;2026;51.002;13.668;2023-04-25T05:40:09;13.77;;;5.50;;
4023;SDS011;2026;51.002;13.668;2023-04-25T05:45:19;6.40;;;5.10;;
4023;SDS011;2026;51.002;13.668;2023-04-25T05:50:45;12.57;;;6.00;;
4023;SDS011;2026;51.002;13.668;2023-04-25T05:56:13;11.53;;;6.10;;
4023;SDS011;2026;51.002;13.668;2023-04-25T06:01:17;8.77;;;5.50;;
4023;SDS011;2026;51.002;13.668;2023-04-25T06:06:21;7.87;;;5.70;;
4023;SDS011;2026;51.002;13.668;2023-04-25T06:11:24;9.67;;;6.60;;
4023;SDS011;2026;51.002;13.668;2023-04-25T06:16:28;10.27;;;5.40;;
4023;SDS011;2026;51.002;13.668;2023-04-25T06:21:31;7.30;;;5.77;;
4023;SDS011;2026;51.002;13.668;2023-04-25T06:26:34;9.30;;;6.20;;
4023;SDS011;2026;51.002;13.668;2023-04-25T06:31:40;9.83;;;5.90;;
4023;SDS011;2026;51.002;13.668;2023-04-25T06:36:44;14.60;;;6.60;;
4023;SDS011;2026;51.002;13.668;2023-04-25T06:41:49;8.30;;;6.33;;
4023;SDS011;2026;51.002;13.668;2023-04-25T06:47:29;11.20;;;6.57;;
4023;SDS011;2026;51.002;13.668;2023-04-25T06:52:34;9.20;;;6.67;;
4023;SDS011;2026;51.002;13.668;2023-04-25T06:57:37;11.90;;;7.13;;
4023;SDS011;2026;51.002;13.668;2023-04-25T07:03:08;12.07;;;7.00;;
4023;SDS011;2026;51.002;13.668;2023-04-25T07:08:11;11.17;;;7.47;;
4023;SDS011;2026;51.002;13.668;2023-04-25T07:13:15;10.97;;;6.40;;
4023;SDS011;2026;51.002;13.668;2023-04-25T07:18:20;8.50;;;5.90;;
4023;SDS011;2026;51.002;13.668;2023-04-25T07:23:24;9.53;;;5.60;;
4023;SDS011;2026;51.002;13.668;2023-04-25T07:28:27;9.80;;;5.50;;
4023;SDS011;2026;51.002;13.668;2023-04-25T07:33:33;9.50;;;5.10;;
4023;SDS011;2026;51.002;13.668;2023-04-25T07:38:36;7.07;;;4.77;;
4023;SDS011;2026;51.002;13.668;2023-04-25T07:43:39;6.00;;;3.97;;
4023;SDS011;2026;51.002;13.668;2023-04-25T07:48:43;5.37;;;3.93;;
4023;SDS011;2026;51.002;13.668;2023-04-25T07:53:49;7.00;;;3.83;;
4023;SDS011;2026;51.002;13.668;2023-04-25T07:58:52;12.73;;;4.60;;
4023;SDS011;2026;51.002;13.668;2023-04-25T08:03:58;5.87;;;4.27;;
4023;SDS011;2026;51.002;13.668;2023-04-25T08:09:22;8.33;;;3.70;;
4023;SDS011;2026;51.002;13.668;2023-04-25T08:14:27;7.03;;;4.10;;
4023;SDS011;2026;51.002;13.668;2023-04-25T08:19:31;7.50;;;4.00;;
4023;SDS011;2026;51.002;13.668;2023-04-25T08:24:36;10.50;;;3.30;;
4023;SDS011;2026;51.002;13.668;2023-04-25T08:29:41;8.70;;;3.43;;
4023;SDS011;2026;51.002;13.668;2023-04-25T08:34:47;5.97;;;3.20;;
4023;SDS011;2026;51.002;13.668;2023-04-25T08:39:50;5.60;;;3.60;;
4023;SDS011;2026;51.002;13.668;2023-04-25T08:45:17;4.80;;;3.67;;
4023;SDS011;2026;51.002;13.668;2023-04-25T08:50:23;9.00;;;4.90;;
4023;SDS011;2026;51.002;13.668;2023-04-25T08:55:28;9.93;;;5.70;;
4023;SDS011;2026;51.002;13.668;2023-04-25T09:00:33;8.43;;;4.90;;
4023;SDS011;2026;51.002;13.668;2023-04-25T09:05:37;6.83;;;4.10;;
4023;SDS011;2026;51.002;13.668;2023-04-25T09:10:42;9.23;;;4.43;;
4023;SDS011;2026;51.002;13.668;2023-04-25T09:15:47;8.73;;;4.87;;
4023;SDS011;2026;51.002;13.668;2023-04-25T09:21:12;7.63;;;5.20;;
4023;SDS011;2026;51.002;13.668;2023-04-25T09:26:20;5.90;;;4.67;;
4023;SDS011;2026;51.002;13.668;2023-04-25T09:31:24;7.63;;;4.70;;
4023;SDS011;2026;51.002;13.668;2023-04-25T09:36:36;10.37;;;5.60;;
4023;SDS011;2026;51.002;13.668;2023-04-25T09:41:57;9.63;;;6.50;;
4023;SDS011;2026;51.002;13.668;2023-04-25T09:47:01;10.60;;;6.47;;
4023;SDS011;2026;51.002;13.668;2023-04-25T09:52:07;8.30;;;5.80;;
4023;SDS011;2026;51.002;13.668;2023-04-25T09:57:18;8.57;;;6.17;;
4023;SDS011;2026;51.002;13.668;2023-04-25T10:02:23;9.73;;;7.30;;
4023;SDS011;2026;51.002;13.668;2023-04-25T10:07:35;10.50;;;8.07;;
4023;SDS011;2026;51.002;13.668;2023-04-25T10:12:43;10.10;;;8.60;;
4023;SDS011;2026;51.002;13.668;2023-04-25T10:17:47;9.90;;;7.90;;
4023;SDS011;2026;51.002;13.668;2023-04-25T10:22:54;7.93;;;7.03;;
4023;SDS011;2026;51.002;13.668;2023-04-25T10:28:02;12.00;;;8.30;;
4023;SDS011;2026;51.002;13.668;2023-04-25T10:33:16;13.50;;;7.30;;
4023;SDS011;2026;51.002;13.668;2023-04-25T10:38:21;14.67;;;8.30;;
4023;SDS011;2026;51.002;13.668;2023-04-25T10:43:35;10.60;;;7.30;;
4023;SDS011;2026;51.002;13.668;2023-04-25T10:48:43;15.40;;;8.97;;
4023;SDS011;2026;51.002;13.668;2023-04-25T10:59:11;13.90;;;9.23;;
4023;SDS011;2026;51.002;13.668;2023-04-25T11:04:19;18.07;;;14.27;;
4023;SDS011;2026;51.002;13.668;2023-04-25T11:09:25;14.07;;;9.40;;
4023;SDS011;2026;51.002;13.668;2023-04-25T11:14:29;15.53;;;9.10;;
4023;SDS011;2026;51.002;13.668;2023-04-25T11:19:33;11.57;;;8.67;;
4023;SDS011;2026;51.002;13.668;2023-04-25T11:24:37;13.23;;;7.37;;
4023;SDS011;2026;51.002;13.668;2023-04-25T11:29:40;9.67;;;4.70;;
4023;SDS011;2026;51.002;13.668;2023-04-25T11:34:43;8.87;;;4.27;;
4023;SDS011;2026;51.002;13.668;2023-04-25T11:39:55;11.80;;;4.23;;
4023;SDS011;2026;51.002;13.668;2023-04-25T11:44:59;9.57;;;4.40;;
4023;SDS011;2026;51.002;13.668;2023-04-25T11:50:03;9.73;;;4.30;;
4023;SDS011;2026;51.002;13.668;2023-04-25T11:55:10;5.70;;;4.13;;
4023;SDS011;2026;51.002;13.668;2023-04-25T12:00:16;7.07;;;4.57;;
4023;SDS011;2026;51.002;13.668;2023-04-25T12:05:23;8.27;;;4.50;;
4023;SDS011;2026;51.002;13.668;2023-04-25T12:10:36;7.67;;;4.60;;
4023;SDS011;2026;51.002;13.668;2023-04-25T12:15:40;11.43;;;4.90;;
4023;SDS011;2026;51.002;13.668;2023-04-25T12:20:44;6.27;;;3.83;;
4023;SDS011;2026;51.002;13.668;2023-04-25T12:25:50;9.47;;;3.60;;
4023;SDS011;2026;51.002;13.668;2023-04-25T12:30:57;8.67;;;4.83;;
4023;SDS011;2026;51.002;13.668;2023-04-25T12:36:03;9.17;;;4.80;;
4023;SDS011;2026;51.002;13.668;2023-04-25T12:41:11;11.87;;;4.73;;
4023;SDS011;2026;51.002;13.668;2023-04-25T12:46:14;15.00;;;6.27;;
4023;SDS011;2026;51.002;13.668;2023-04-25T12:51:17;10.97;;;4.40;;
4023;SDS011;2026;51.002;13.668;2023-04-25T12:56:21;8.40;;;5.10;;
4023;SDS011;2026;51.002;13.668;2023-04-25T13:01:26;11.63;;;5.27;;
4023;SDS011;2026;51.002;13.668;2023-04-25T13:06:29;12.20;;;6.10;;
4023;SDS011;2026;51.002;13.668;2023-04-25T13:11:34;18.40;;;5.83;;
4023;SDS011;2026;51.002;13.668;2023-04-25T13:16:37;13.07;;;6.03;;
4023;SDS011;2026;51.002;13.668;2023-04-25T13:21:40;13.30;;;6.50;;
4023;SDS011;2026;51.002;13.668;2023-04-25T13:26:44;9.97;;;6.03;;
4023;SDS011;2026;51.002;13.668;2023-04-25T13:31:47;13.03;;;6.50;;
4023;SDS011;2026;51.002;13.668;2023-04-25T13:36:50;10.53;;;4.70;;
4023;SDS011;2026;51.002;13.668;2023-04-25T13:41:55;12.07;;;5.67;;
4023;SDS011;2026;51.002;13.668;2023-04-25T13:46:58;10.80;;;5.40;;
4023;SDS011;2026;51.002;13.668;2023-04-25T13:52:02;13.30;;;6.17;;
4023;SDS011;2026;51.002;13.668;2023-04-25T13:57:06;16.40;;;6.00;;
4023;SDS011;2026;51.002;13.668;2023-04-25T14:02:09;10.73;;;5.13;;
4023;SDS011;2026;51.002;13.668;2023-04-25T14:07:13;10.60;;;4.90;;
4023;SDS011;2026;51.002;13.668;2023-04-25T14:12:18;15.43;;;5.90;;
4023;SDS011;2026;51.002;13.668;2023-04-25T14:17:21;11.60;;;5.03;;
4023;SDS011;2026;51.002;13.668;2023-04-25T14:22:25;12.17;;;5.30;;
4023;SDS011;2026;51.002;13.668;2023-04-25T14:27:30;7.60;;;4.77;;
4023;SDS011;2026;51.002;13.668;2023-04-25T14:32:34;12.13;;;5.50;;
4023;SDS011;2026;51.002;13.668;2023-04-25T14:37:37;11.20;;;5.30;;
4023;SDS011;2026;51.002;13.668;2023-04-25T14:42:42;12.70;;;5.87;;
4023;SDS011;2026;51.002;13.668;2023-04-25T14:47:45;10.13;;;5.00;;
4023;SDS011;2026;51.002;13.668;2023-04-25T14:52:48;12.90;;;5.50;;
4023;SDS011;2026;51.002;13.668;2023-04-25T14:57:52;15.10;;;5.90;;
4023;SDS011;2026;51.002;13.668;2023-04-25T15:02:58;20.73;;;10.50;;
4023;SDS011;2026;51.002;13.668;2023-04-25T15:08:01;19.03;;;8.23;;
4023;SDS011;2026;51.002;13.668;2023-04-25T15:13:06;11.90;;;5.80;;
4023;SDS011;2026;51.002;13.668;2023-04-25T15:18:09;13.10;;;5.10;;
4023;SDS011;2026;51.002;13.668;2023-04-25T15:23:13;9.43;;;5.00;;
4023;SDS011;2026;51.002;13.668;2023-04-25T15:28:17;19.27;;;5.20;;
4023;SDS011;2026;51.002;13.668;2023-04-25T15:33:22;13.20;;;5.70;;
4023;SDS011;2026;51.002;13.668;2023-04-25T15:38:25;12.10;;;3.80;;
4023;SDS011;2026;51.002;13.668;2023-04-25T15:43:30;10.43;;;3.77;;
4023;SDS011;2026;51.002;13.668;2023-04-25T15:48:32;13.80;;;3.90;;
4023;SDS011;2026;51.002;13.668;2023-04-25T15:53:36;8.60;;;3.40;;
4023;SDS011;2026;51.002;13.668;2023-04-25T15:58:40;9.33;;;3.47;;
4023;SDS011;2026;51.002;13.668;2023-04-25T16:03:43;10.93;;;3.80;;
4023;SDS011;2026;51.002;13.668;2023-04-25T16:08:47;6.43;;;3.17;;
4023;SDS011;2026;51.002;13.668;2023-04-25T16:13:51;12.57;;;3.60;;
4023;SDS011;2026;51.002;13.668;2023-04-25T16:18:54;11.17;;;4.30;;
4023;SDS011;2026;51.002;13.668;2023-04-25T16:23:57;7.43;;;3.17;;
4023;SDS011;2026;51.002;13.668;2023-04-25T16:29:03;5.23;;;3.20;;
4023;SDS011;2026;51.002;13.668;2023-04-25T16:34:07;10.50;;;4.33;;
4023;SDS011;2026;51.002;13.668;2023-04-25T16:39:10;12.53;;;4.00;;
4023;SDS011;2026;51.002;13.668;2023-04-25T16:44:15;13.57;;;4.83;;
4023;SDS011;2026;51.002;13.668;2023-04-25T16:49:18;12.00;;;4.40;;
4023;SDS011;2026;51.002;13.668;2023-04-25T16:54:20;6.10;;;3.13;;
4023;SDS011;2026;51.002;13.668;2023-04-25T16:59:27;35.27;;;17.23;;
4023;SDS011;2026;51.002;13.668;2023-04-25T17:04:30;5.23;;;3.33;;
4023;SDS011;2026;51.002;13.668;2023-04-25T17:09:36;9.93;;;3.27;;
4023;SDS011;2026;51.002;13.668;2023-04-25T17:14:41;7.03;;;3.07;;
4023;SDS011;2026;51.002;13.668;2023-04-25T17:19:44;8.60;;;3.60;;
4023;SDS011;2026;51.002;13.668;2023-04-25T17:24:47;10.43;;;3.43;;
4023;SDS011;2026;51.002;13.668;2023-04-25T17:29:52;8.77;;;3.40;;
4023;SDS011;2026;51.002;13.668;2023-04-25T17:34:55;8.10;;;4.90;;
4023;SDS011;2026;51.002;13.668;2023-04-25T17:39:58;5.83;;;3.30;;
4023;SDS011;2026;51.002;13.668;2023-04-25T17:45:03;8.10;;;5.00;;
4023;SDS011;2026;51.002;13.668;2023-04-25T17:50:08;10.23;;;5.27;;
4023;SDS011;2026;51.002;13.668;2023-04-25T17:55:12;5.67;;;3.70;;
4023;SDS011;2026;51.002;13.668;2023-04-25T18:00:17;8.10;;;3.20;;
4023;SDS011;2026;51.002;13.668;2023-04-25T18:05:21;7.27;;;3.50;;
4023;SDS011;2026;51.002;13.668;2023-04-25T18:10:24;8.23;;;3.73;;
4023;SDS011;2026;51.002;13.668;2023-04-25T18:15:28;7.10;;;3.73;;
4023;SDS011;2026;51.002;13.668;2023-04-25T18:20:32;3.90;;;2.77;;
4023;SDS011;2026;51.002;13.668;2023-04-25T18:25:34;4.23;;;2.73;;
4023;SDS011;2026;51.002;13.668;2023-04-25T18:30:39;7.77;;;3.07;;
4023;SDS011;2026;51.002;13.668;2023-04-25T18:35:45;9.50;;;3.27;;
4023;SDS011;2026;51.002;13.668;2023-04-25T18:40:58;4.10;;;3.10;;
4023;SDS011;2026;51.002;13.668;2023-04-25T18:46:23;8.93;;;3.70;;
4023;SDS011;2026;51.002;13.668;2023-04-25T18:51:26;9.53;;;4.10;;
4023;SDS011;2026;51.002;13.668;2023-04-25T18:56:31;13.97;;;4.70;;
4023;SDS011;2026;51.002;13.668;2023-04-25T19:01:36;16.17;;;8.37;;
4023;SDS011;2026;51.002;13.668;2023-04-25T19:06:38;7.80;;;4.80;;
4023;SDS011;2026;51.002;13.668;2023-04-25T19:11:41;7.57;;;3.63;;
4023;SDS011;2026;51.002;13.668;2023-04-25T19:16:46;9.00;;;3.70;;
4023;SDS011;2026;51.002;13.668;2023-04-25T19:21:49;7.43;;;3.73;;
4023;SDS011;2026;51.002;13.668;2023-04-25T19:26:52;8.63;;;3.87;;
4023;SDS011;2026;51.002;13.668;2023-04-25T19:31:57;8.80;;;3.80;;
4023;SDS011;2026;51.002;13.668;2023-04-25T19:37:00;6.23;;;3.43;;
4023;SDS011;2026;51.002;13.668;2023-04-25T19:42:03;8.00;;;4.53;;
4023;SDS011;2026;51.002;13.668;2023-04-25T19:47:08;8.63;;;4.37;;
4023;SDS011;2026;51.002;13.668;2023-04-25T19:52:11;27.13;;;10.70;;
4023;SDS011;2026;51.002;13.668;2023-04-25T19:57:16;19.13;;;10.90;;
4023;SDS011;2026;51.002;13.668;2023-04-25T20:02:20;13.97;;;8.70;;
4023;SDS011;2026;51.002;13.668;2023-04-25T20:07:23;5.10;;;3.53;;
4023;SDS011;2026;51.002;13.668;2023-04-25T20:12:27;7.93;;;4.20;;
4023;SDS011;2026;51.002;13.668;2023-04-25T20:17:31;6.37;;;3.03;;
4023;SDS011;2026;51.002;13.668;2023-04-25T20:22:34;5.67;;;3.13;;
4023;SDS011;2026;51.002;13.668;2023-04-25T20:27:40;8.20;;;3.63;;
4023;SDS011;2026;51.002;13.668;2023-04-25T20:32:44;8.07;;;3.60;;
4023;SDS011;2026;51.002;13.668;2023-04-25T20:37:47;5.00;;;2.90;;
4023;SDS011;2026;51.002;13.668;2023-04-25T20:42:50;4.10;;;2.87;;
4023;SDS011;2026;51.002;13.668;2023-04-25T20:47:55;13.70;;;4.23;;
4023;SDS011;2026;51.002;13.668;2023-04-25T20:52:59;9.13;;;4.50;;
4023;SDS011;2026;51.002;13.668;2023-04-25T20:58:03;10.47;;;3.33;;
4023;SDS011;2026;51.002;13.668;2023-04-25T21:03:08;6.57;;;2.90;;
4023;SDS011;2026;51.002;13.668;2023-04-25T21:08:13;6.87;;;3.13;;
4023;SDS011;2026;51.002;13.668;2023-04-25T21:13:16;5.70;;;3.20;;
4023;SDS011;2026;51.002;13.668;2023-04-25T21:18:20;8.30;;;2.57;;
4023;SDS011;2026;51.002;13.668;2023-04-25T21:23:23;4.47;;;2.60;;
4023;SDS011;2026;51.002;13.668;2023-04-25T21:28:26;3.50;;;2.77;;
4023;SDS011;2026;51.002;13.668;2023-04-25T21:33:31;6.40;;;2.70;;
4023;SDS011;2026;51.002;13.668;2023-04-25T21:38:34;6.93;;;2.10;;
4023;SDS011;2026;51.002;13.668;2023-04-25T21:43:37;5.43;;;2.60;;
4023;SDS011;2026;51.002;13.668;2023-04-25T21:48:41;4.67;;;2.60;;
4023;SDS011;2026;51.002;13.668;2023-04-25T21:53:44;3.90;;;2.57;;
4023;SDS011;2026;51.002;13.668;2023-04-25T21:58:47;4.93;;;2.43;;
4023;SDS011;2026;51.002;13.668;2023-04-25T22:03:52;4.33;;;2.33;;
4023;SDS011;2026;51.002;13.668;2023-04-25T22:08:55;5.00;;;2.07;;
4023;SDS011;2026;51.002;13.668;2023-04-25T22:13:58;3.40;;;2.50;;
4023;SDS011;2026;51.002;13.668;2023-04-25T22:19:03;3.63;;;2.57;;
4023;SDS011;2026;51.002;13.668;2023-04-25T22:24:06;6.77;;;2.80;;
4023;SDS011;2026;51.002;13.668;2023-04-25T22:29:09;3.03;;;2.20;;
4023;SDS011;2026;51.002;13.668;2023-04-25T22:34:14;5.77;;;3.13;;
4023;SDS011;2026;51.002;13.668;2023-04-25T22:39:16;6.90;;;3.57;;
4023;SDS011;2026;51.002;13.668;2023-04-25T22:44:19;6.97;;;2.47;;
4023;SDS011;2026;51.002;13.668;2023-04-25T22:49:24;9.57;;;3.10;;
4023;SDS011;2026;51.002;13.668;2023-04-25T22:54:27;6.77;;;3.07;;
4023;SDS011;2026;51.002;13.668;2023-04-25T22:59:30;4.83;;;2.70;;
4023;SDS011;2026;51.002;13.668;2023-04-25T23:04:34;3.83;;;2.80;;
4023;SDS011;2026;51.002;13.668;2023-04-25T23:09:38;5.43;;;3.40;;
4023;SDS011;2026;51.002;13.668;2023-04-25T23:14:41;7.30;;;3.20;;
4023;SDS011;2026;51.002;13.668;2023-04-25T23:19:45;13.13;;;5.40;;
4023;SDS011;2026;51.002;13.668;2023-04-25T23:24:48;7.93;;;4.20;;
4023;SDS011;2026;51.002;13.668;2023-04-25T23:29:51;10.20;;;3.57;;
4023;SDS011;2026;51.002;13.668;2023-04-25T23:34:58;6.20;;;3.10;;
4023;SDS011;2026;51.002;13.668;2023-04-25T23:40:01;7.57;;;2.90;;
4023;SDS011;2026;51.002;13.668;2023-04-25T23:45:08;7.17;;;3.20;;
4023;SDS011;2026;51.002;13.668;2023-04-25T23:50:13;5.47;;;2.70;;
4023;SDS011;2026;51.002;13.668;2023-04-25T23:55:16;6.80;;;2.80;;
